createdAt,value
2018-12-23T00:00:05.731Z,8.02
2018-12-23T00:02:35.684Z,8.00
2018-12-23T00:05:11.413Z,8.04
2018-12-23T00:07:35.176Z,8.06
2018-12-23T00:10:07.323Z,8.07
2018-12-23T00:12:35.757Z,8.08
2018-12-23T00:15:06.824Z,8.10
2018-12-23T00:17:34.962Z,8.12
2018-12-23T00:20:06.035Z,7.87
2018-12-23T00:22:34.204Z,8.10
2018-12-23T00:25:05.587Z,8.09
2018-12-23T00:27:34.808Z,8.07
2018-12-23T00:30:05.749Z,8.09
2018-12-23T00:32:34.816Z,8.08
2018-12-23T00:35:06.130Z,7.94
2018-12-23T00:37:34.193Z,8.09
2018-12-23T00:40:03.639Z,8.08
2018-12-23T00:42:33.830Z,8.07
2018-12-23T00:45:03.263Z,8.07
2018-12-23T00:47:31.611Z,8.06
2018-12-23T00:50:01.439Z,8.06
2018-12-23T00:52:30.421Z,8.06
2018-12-23T00:54:58.670Z,7.94
2018-12-23T00:57:27.704Z,8.06
2018-12-23T00:59:55.790Z,8.03
2018-12-23T01:02:24.209Z,8.04
2018-12-23T01:04:52.154Z,8.05
2018-12-23T01:07:20.211Z,8.04
2018-12-23T01:09:50.113Z,8.03
2018-12-23T01:12:18.803Z,8.01
2018-12-23T01:14:46.788Z,8.01
2018-12-23T01:17:15.361Z,8.00
2018-12-23T01:19:43.602Z,7.99
2018-12-23T01:22:11.923Z,7.97
2018-12-23T01:24:40.141Z,7.97
2018-12-23T01:27:08.869Z,7.95
2018-12-23T01:29:37.358Z,7.97
2018-12-23T01:32:06.281Z,7.97
2018-12-23T01:34:37.162Z,7.96
2018-12-23T01:37:03.120Z,7.95
2018-12-23T01:39:31.406Z,7.79
2018-12-23T01:42:00.336Z,7.94
2018-12-23T01:44:28.731Z,7.93
2018-12-23T01:46:56.981Z,7.93
2018-12-23T01:49:25.849Z,7.92
2018-12-23T01:51:54.712Z,7.91
2018-12-23T01:54:22.793Z,7.88
2018-12-23T01:56:51.257Z,7.89
2018-12-23T01:59:19.490Z,7.88
2018-12-23T02:01:47.789Z,7.88
2018-12-23T02:04:15.952Z,7.88
2018-12-23T02:06:43.929Z,7.62
2018-12-23T02:09:12.263Z,7.86
2018-12-23T02:11:40.931Z,7.87
2018-12-23T02:14:09.082Z,7.88
2018-12-23T02:16:39.951Z,7.88
2018-12-23T02:19:09.633Z,7.88
2018-12-23T02:21:37.969Z,7.87
2018-12-23T02:24:07.095Z,7.74
2018-12-23T02:26:35.284Z,7.88
2018-12-23T02:29:03.781Z,7.87
2018-12-23T02:31:32.991Z,7.87
2018-12-23T02:34:01.114Z,7.87
2018-12-23T02:36:29.104Z,7.83
2018-12-23T02:38:57.764Z,7.85
2018-12-23T02:41:31.698Z,7.85
2018-12-23T02:43:53.386Z,7.84
2018-12-23T02:46:22.080Z,7.85
2018-12-23T02:48:50.351Z,7.83
2018-12-23T02:51:18.626Z,7.82
2018-12-23T02:53:47.228Z,7.80
2018-12-23T02:56:19.752Z,7.80
2018-12-23T02:58:47.676Z,7.80
2018-12-23T03:01:16.023Z,7.80
2018-12-23T03:03:43.862Z,7.79
2018-12-23T03:06:11.845Z,7.78
2018-12-23T03:08:44.653Z,7.77
2018-12-23T03:11:13.068Z,7.53
2018-12-23T03:13:42.235Z,7.79
2018-12-23T03:16:10.723Z,7.78
2018-12-23T03:18:39.580Z,7.39
2018-12-23T03:21:07.709Z,7.41
2018-12-23T03:23:36.615Z,7.80
2018-12-23T03:26:04.801Z,7.80
2018-12-23T03:28:32.548Z,7.80
2018-12-23T03:31:01.328Z,7.80
2018-12-23T03:33:29.259Z,7.79
2018-12-23T03:35:57.759Z,7.83
2018-12-23T03:38:26.655Z,7.83
2018-12-23T03:40:55.928Z,7.83
2018-12-23T03:43:26.256Z,7.83
2018-12-23T03:45:54.962Z,7.84
2018-12-23T03:48:22.884Z,7.83
2018-12-23T03:50:51.065Z,7.79
2018-12-23T03:53:19.549Z,7.80
2018-12-23T03:55:48.036Z,7.75
2018-12-23T03:58:16.063Z,7.58
2018-12-23T04:00:44.957Z,7.41
2018-12-23T04:03:12.991Z,7.55
2018-12-23T04:05:41.015Z,7.71
2018-12-23T04:08:09.608Z,7.65
2018-12-23T04:10:37.553Z,6.79
2018-12-23T04:13:05.560Z,7.56
2018-12-23T04:15:33.919Z,7.52
2018-12-23T04:18:03.040Z,7.48
2018-12-23T04:20:31.825Z,7.44
2018-12-23T04:23:01.644Z,7.38
2018-12-23T04:25:29.665Z,7.34
2018-12-23T04:27:57.602Z,7.30
2018-12-23T04:30:25.525Z,7.28
2018-12-23T04:32:53.455Z,6.95
2018-12-23T04:35:21.353Z,7.19
2018-12-23T04:37:50.028Z,7.15
2018-12-23T04:40:18.176Z,7.11
2018-12-23T04:42:48.098Z,6.85
2018-12-23T04:45:16.167Z,6.94
2018-12-23T04:47:44.359Z,7.04
2018-12-23T04:50:12.168Z,7.01
2018-12-23T04:52:40.440Z,5.92
2018-12-23T04:55:08.396Z,6.95
2018-12-23T04:57:38.083Z,6.93
2018-12-23T05:00:06.331Z,6.89
2018-12-23T05:02:34.332Z,6.87
2018-12-23T05:05:03.129Z,6.86
2018-12-23T05:07:31.513Z,6.84
2018-12-23T05:10:00.024Z,6.82
2018-12-23T05:12:28.232Z,6.81
2018-12-23T05:14:56.686Z,6.79
2018-12-23T05:17:24.804Z,6.77
2018-12-23T05:19:52.769Z,6.26
2018-12-23T05:22:21.220Z,6.70
2018-12-23T05:24:49.902Z,6.69
2018-12-23T05:27:18.151Z,6.66
2018-12-23T05:29:46.644Z,6.68
2018-12-23T05:32:14.855Z,6.65
2018-12-23T05:34:43.137Z,6.65
2018-12-23T05:37:12.108Z,6.64
2018-12-23T05:39:40.154Z,6.64
2018-12-23T05:42:08.370Z,6.64
2018-12-23T05:44:37.012Z,6.66
2018-12-23T05:47:05.028Z,6.66
2018-12-23T05:49:33.147Z,6.67
2018-12-23T05:52:03.633Z,6.61
2018-12-23T05:54:32.044Z,6.72
2018-12-23T05:57:00.563Z,6.46
2018-12-23T05:59:29.254Z,6.73
2018-12-23T06:01:57.449Z,6.75
2018-12-23T06:04:25.703Z,6.74
2018-12-23T06:07:00.877Z,6.76
2018-12-23T06:09:23.199Z,6.76
2018-12-23T06:11:52.186Z,6.74
2018-12-23T06:14:21.678Z,5.25
2018-12-23T06:16:52.262Z,5.71
2018-12-23T06:19:20.330Z,6.70
2018-12-23T06:21:48.715Z,5.00
2018-12-23T06:24:16.867Z,6.65
2018-12-23T06:26:47.418Z,6.64
2018-12-23T06:29:16.075Z,6.64
2018-12-23T06:31:44.199Z,6.66
2018-12-23T06:34:12.308Z,6.68
2018-12-23T06:36:40.548Z,6.69
2018-12-23T06:39:08.645Z,6.72
2018-12-23T06:41:36.777Z,6.76
2018-12-23T06:44:06.678Z,6.78
2018-12-23T06:46:34.517Z,6.81
2018-12-23T06:49:03.214Z,6.78
2018-12-23T06:51:31.258Z,6.80
2018-12-23T06:53:59.766Z,6.81
2018-12-23T06:56:29.437Z,6.83
2018-12-23T06:58:58.234Z,6.82
2018-12-23T07:01:26.453Z,4.87
2018-12-23T07:03:54.878Z,6.82
2018-12-23T07:06:22.885Z,6.83
2018-12-23T07:08:50.799Z,6.67
2018-12-23T07:11:19.522Z,6.83
2018-12-23T07:13:48.243Z,6.83
2018-12-23T07:16:16.469Z,6.83
2018-12-23T07:18:46.764Z,6.84
2018-12-23T07:21:16.063Z,6.86
2018-12-23T07:23:44.811Z,6.83
2018-12-23T07:26:12.845Z,6.83
2018-12-23T07:28:41.218Z,6.81
2018-12-23T07:31:09.609Z,6.82
2018-12-23T07:33:38.205Z,6.82
2018-12-23T07:36:07.688Z,6.33
2018-12-23T07:38:36.153Z,6.54
2018-12-23T07:41:05.547Z,6.81
2018-12-23T07:43:33.893Z,6.79
2018-12-23T07:46:04.238Z,6.82
2018-12-23T07:48:36.663Z,6.83
2018-12-23T07:51:09.402Z,6.84
2018-12-23T07:53:39.742Z,6.86
2018-12-23T07:56:08.441Z,6.85
2018-12-23T07:58:36.452Z,6.87
2018-12-23T08:01:05.308Z,6.89
2018-12-23T08:03:33.339Z,6.87
2018-12-23T08:06:02.162Z,6.89
2018-12-23T08:08:30.844Z,6.91
2018-12-23T08:11:00.267Z,5.79
2018-12-23T08:13:30.803Z,6.90
2018-12-23T08:16:07.362Z,6.92
2018-12-23T08:18:38.945Z,6.92
2018-12-23T08:21:07.160Z,6.74
2018-12-23T08:23:36.342Z,6.94
2018-12-23T08:26:04.388Z,6.96
2018-12-23T08:28:33.131Z,6.98
2018-12-23T08:31:03.104Z,7.01
2018-12-23T08:33:32.271Z,7.03
2018-12-23T08:36:00.270Z,7.05
2018-12-23T08:38:28.766Z,7.06
2018-12-23T08:40:57.099Z,6.04
2018-12-23T08:43:25.145Z,6.42
2018-12-23T08:45:53.934Z,6.28
2018-12-23T08:48:22.086Z,7.14
2018-12-23T08:50:50.581Z,7.04
2018-12-23T08:53:18.802Z,7.09
2018-12-23T08:55:46.783Z,7.21
2018-12-23T08:58:15.195Z,7.24
2018-12-23T09:00:43.029Z,7.26
2018-12-23T09:03:18.621Z,7.29
2018-12-23T09:06:09.534Z,7.31
2018-12-23T09:08:37.596Z,7.34
2018-12-23T09:11:06.425Z,6.80
2018-12-23T09:13:38.271Z,7.42
2018-12-23T09:16:07.017Z,7.47
2018-12-23T09:18:35.047Z,7.50
2018-12-23T09:21:05.210Z,7.53
2018-12-23T09:23:35.461Z,7.58
2018-12-23T09:26:03.594Z,7.64
2018-12-23T09:28:32.392Z,7.69
2018-12-23T09:31:05.605Z,7.75
2018-12-23T09:33:33.730Z,7.80
2018-12-23T09:36:02.210Z,7.84
2018-12-23T09:38:32.049Z,7.88
2018-12-23T09:41:01.283Z,7.23
2018-12-23T09:43:30.136Z,7.95
2018-12-23T09:45:59.910Z,7.99
2018-12-23T09:48:27.842Z,8.01
2018-12-23T09:50:58.565Z,7.80
2018-12-23T09:53:31.871Z,8.01
2018-12-23T09:56:00.253Z,7.98
2018-12-23T09:58:29.701Z,7.95
2018-12-23T10:01:00.543Z,7.92
2018-12-23T10:03:30.381Z,7.91
2018-12-23T10:05:59.304Z,7.92
2018-12-23T10:08:28.288Z,7.93
2018-12-23T10:10:59.146Z,7.96
2018-12-23T10:13:28.407Z,7.99
2018-12-23T10:15:59.542Z,7.92
2018-12-23T10:18:28.659Z,8.08
2018-12-23T10:21:04.410Z,8.13
2018-12-23T10:23:34.195Z,8.16
2018-12-23T10:26:02.968Z,8.07
2018-12-23T10:28:31.843Z,7.27
2018-12-23T10:31:02.932Z,8.23
2018-12-23T10:33:34.270Z,8.28
2018-12-23T10:36:07.066Z,7.23
2018-12-23T10:38:35.143Z,8.33
2018-12-23T10:41:05.536Z,8.05
2018-12-23T10:43:42.022Z,8.43
2018-12-23T10:46:13.870Z,8.50
2018-12-23T10:48:44.729Z,8.55
2018-12-23T10:51:14.695Z,8.60
2018-12-23T10:53:45.795Z,8.54
2018-12-23T10:56:19.882Z,8.72
2018-12-23T10:58:49.600Z,8.77
2018-12-23T11:01:22.891Z,8.81
2018-12-23T11:03:51.631Z,8.87
2018-12-23T11:06:28.941Z,8.92
2018-12-23T11:09:02.649Z,8.96
2018-12-23T11:11:35.762Z,9.00
2018-12-23T11:14:11.342Z,9.05
2018-12-23T11:16:39.941Z,9.10
2018-12-23T11:19:09.294Z,9.15
2018-12-23T11:21:37.408Z,9.20
2018-12-23T11:24:05.801Z,8.78
2018-12-23T11:26:34.761Z,9.28
2018-12-23T11:29:04.985Z,9.30
2018-12-23T11:31:35.703Z,9.33
2018-12-23T11:34:05.373Z,9.37
2018-12-23T11:36:39.452Z,9.07
2018-12-23T11:39:10.511Z,9.44
2018-12-23T11:41:39.273Z,9.46
2018-12-23T11:44:14.727Z,9.49
2018-12-23T11:46:43.740Z,9.39
2018-12-23T11:49:13.227Z,9.50
2018-12-23T11:51:45.453Z,9.51
2018-12-23T11:54:18.674Z,9.45
2018-12-23T11:56:52.529Z,9.47
2018-12-23T11:59:26.568Z,9.46
2018-12-23T12:01:56.019Z,9.42
2018-12-23T12:04:29.370Z,7.89
2018-12-23T12:07:04.259Z,9.40
2018-12-23T12:09:42.851Z,9.39
2018-12-23T12:12:16.317Z,9.40
2018-12-23T12:14:49.988Z,9.39
2018-12-23T12:17:22.064Z,9.39
2018-12-23T12:19:51.105Z,9.39
2018-12-23T12:22:25.005Z,9.41
2018-12-23T12:24:55.588Z,9.41
2018-12-23T12:27:26.091Z,9.42
2018-12-23T12:29:58.583Z,9.38
2018-12-23T12:32:35.103Z,9.36
2018-12-23T12:35:07.458Z,9.34
2018-12-23T12:37:39.268Z,9.32
2018-12-23T12:40:12.567Z,9.30
2018-12-23T12:42:42.242Z,9.29
2018-12-23T12:45:11.665Z,9.31
2018-12-23T12:47:48.396Z,9.35
2018-12-23T12:50:25.336Z,9.36
2018-12-23T12:52:55.480Z,9.39
2018-12-23T12:55:23.832Z,9.44
2018-12-23T12:57:52.052Z,9.47
2018-12-23T13:00:23.751Z,9.48
2018-12-23T13:02:53.706Z,9.50
2018-12-23T13:05:27.828Z,7.66
2018-12-23T13:07:58.768Z,9.51
2018-12-23T13:10:32.525Z,9.51
2018-12-23T13:13:06.993Z,9.55
2018-12-23T13:15:35.739Z,9.61
2018-12-23T13:18:08.066Z,9.21
2018-12-23T13:20:38.747Z,9.65
2018-12-23T13:23:11.851Z,9.67
2018-12-23T13:25:42.637Z,9.56
2018-12-23T13:28:13.051Z,9.34
2018-12-23T13:30:44.949Z,9.68
2018-12-23T13:33:14.083Z,8.86
2018-12-23T13:35:46.581Z,9.67
2018-12-23T13:38:14.920Z,9.66
2018-12-23T13:41:18.552Z,7.92
2018-12-23T13:45:03.336Z,7.98
2018-12-23T13:47:42.630Z,9.64
2018-12-23T13:50:53.239Z,9.65
2018-12-23T13:53:37.082Z,9.64
2018-12-23T13:56:22.971Z,9.52
2018-12-23T13:59:03.795Z,8.49
2018-12-23T14:01:44.239Z,9.58
2018-12-23T14:06:23.634Z,9.55
2018-12-23T14:10:06.706Z,9.44
2018-12-23T14:12:35.120Z,9.37
2018-12-23T14:15:04.856Z,9.34
2018-12-23T14:17:32.740Z,9.32
2018-12-23T14:20:05.338Z,9.17
2018-12-23T14:22:33.697Z,9.24
2018-12-23T14:25:03.454Z,9.22
2018-12-23T14:27:31.568Z,9.21
2018-12-23T14:30:01.754Z,9.19
2018-12-23T14:32:29.720Z,9.16
2018-12-23T14:34:57.605Z,9.16
2018-12-23T14:37:25.420Z,9.17
2018-12-23T14:39:53.997Z,9.17
2018-12-23T14:42:28.242Z,8.17
2018-12-23T14:44:58.312Z,9.17
2018-12-23T14:47:27.454Z,9.15
2018-12-23T14:49:57.189Z,9.13
2018-12-23T14:52:28.498Z,8.98
2018-12-23T14:54:59.880Z,9.07
2018-12-23T14:57:30.867Z,9.06
2018-12-23T15:00:00.172Z,9.03
2018-12-23T15:02:28.651Z,9.00
2018-12-23T15:05:00.774Z,8.86
2018-12-23T15:07:30.055Z,8.64
2018-12-23T15:10:00.635Z,8.94
2018-12-23T15:12:29.844Z,8.80
2018-12-23T15:14:58.622Z,8.92
2018-12-23T15:18:15.153Z,8.13
2018-12-23T15:21:02.082Z,8.91
2018-12-23T15:23:31.091Z,8.87
2018-12-23T15:26:01.203Z,8.83
2018-12-23T15:28:39.131Z,8.81
2018-12-23T15:31:09.724Z,8.80
2018-12-23T15:33:40.825Z,8.78
2018-12-23T15:36:09.491Z,8.77
2018-12-23T15:38:38.466Z,8.77
2018-12-23T15:41:07.457Z,8.39
2018-12-23T15:43:37.061Z,8.77
2018-12-23T15:46:06.155Z,8.77
2018-12-23T15:48:34.509Z,8.76
2018-12-23T15:51:06.944Z,8.77
2018-12-23T15:53:35.959Z,8.76
2018-12-23T15:56:06.532Z,8.76
2018-12-23T15:58:35.734Z,8.73
2018-12-23T16:01:06.362Z,8.70
2018-12-23T16:03:34.799Z,8.70
2018-12-23T16:06:03.276Z,8.68
2018-12-23T16:08:36.865Z,8.65
2018-12-23T16:11:04.973Z,8.64
2018-12-23T16:13:34.609Z,8.18
2018-12-23T16:16:04.363Z,8.62
2018-12-23T16:18:35.525Z,8.24
2018-12-23T16:21:03.681Z,8.58
2018-12-23T16:23:32.141Z,8.58
2018-12-23T16:26:21.329Z,8.59
2018-12-23T16:28:53.242Z,8.59
2018-12-23T16:31:23.091Z,8.58
2018-12-23T16:34:02.213Z,8.57
2018-12-23T16:36:31.262Z,8.47
2018-12-23T16:39:07.687Z,8.58
2018-12-23T16:41:35.851Z,8.58
2018-12-23T16:44:03.966Z,8.47
2018-12-23T16:46:35.445Z,8.61
2018-12-23T16:49:03.411Z,8.26
2018-12-23T16:51:35.337Z,8.58
2018-12-23T16:54:06.610Z,8.57
2018-12-23T16:56:35.991Z,8.57
2018-12-23T16:59:08.098Z,7.55
2018-12-23T17:01:37.339Z,8.57
2018-12-23T17:04:06.506Z,7.67
2018-12-23T17:06:39.086Z,8.57
2018-12-23T17:09:07.966Z,8.56
2018-12-23T17:11:36.763Z,8.56
2018-12-23T17:14:05.415Z,8.56
2018-12-23T17:16:37.202Z,7.97
2018-12-23T17:19:07.326Z,8.54
2018-12-23T17:21:40.323Z,8.33
2018-12-23T17:24:10.243Z,8.54
2018-12-23T17:26:43.446Z,8.53
2018-12-23T17:29:11.884Z,8.53
2018-12-23T17:31:40.707Z,8.51
2018-12-23T17:34:09.248Z,8.49
2018-12-23T17:36:42.411Z,8.47
2018-12-23T17:39:16.504Z,8.43
2018-12-23T17:41:49.556Z,8.40
2018-12-23T17:44:18.142Z,8.39
2018-12-23T17:46:49.426Z,6.73
2018-12-23T17:49:18.089Z,8.40
2018-12-23T17:51:59.259Z,8.39
2018-12-23T17:54:31.422Z,8.38
2018-12-23T17:57:04.980Z,8.36
2018-12-23T17:59:36.335Z,8.32
2018-12-23T18:02:06.396Z,8.32
2018-12-23T18:04:37.552Z,8.32
2018-12-23T18:07:09.594Z,8.31
2018-12-23T18:09:45.689Z,8.33
2018-12-23T18:12:16.792Z,7.18
2018-12-23T18:14:45.251Z,8.19
2018-12-23T18:17:17.593Z,8.30
2018-12-23T18:19:47.946Z,8.29
2018-12-23T18:22:22.040Z,8.28
2018-12-23T18:24:50.267Z,8.16
2018-12-23T18:27:24.457Z,8.27
2018-12-23T18:30:02.301Z,7.13
2018-12-23T18:32:30.624Z,8.26
2018-12-23T18:35:00.037Z,8.25
2018-12-23T18:37:31.065Z,7.78
2018-12-23T18:39:59.879Z,8.20
2018-12-23T18:42:28.524Z,7.49
2018-12-23T18:45:00.568Z,7.68
2018-12-23T18:47:29.326Z,8.13
2018-12-23T18:50:02.234Z,8.13
2018-12-23T18:52:33.016Z,8.13
2018-12-23T18:55:02.084Z,8.14
2018-12-23T18:57:34.752Z,8.15
2018-12-23T19:00:06.589Z,6.76
2018-12-23T19:02:41.025Z,8.11
2018-12-23T19:05:13.511Z,8.11
2018-12-23T19:07:51.432Z,6.76
2018-12-23T19:10:45.170Z,6.74
2018-12-23T19:14:31.071Z,8.12
2018-12-23T19:18:19.131Z,8.09
2018-12-23T19:21:00.966Z,8.06
2018-12-23T19:25:38.679Z,7.95
2018-12-23T19:28:17.761Z,8.06
2018-12-23T19:31:00.524Z,7.82
2018-12-23T19:33:48.178Z,8.02
2018-12-23T19:36:27.950Z,7.99
2018-12-23T19:43:19.277Z,7.95
2018-12-23T19:46:09.539Z,7.94
2018-12-23T19:48:53.511Z,7.96
2018-12-23T19:51:38.179Z,7.97
2018-12-23T19:54:21.014Z,7.95
2018-12-23T19:59:06.971Z,7.25
2018-12-23T20:03:48.609Z,7.93
2018-12-23T20:06:28.909Z,7.89
2018-12-23T20:09:21.964Z,7.89
2018-12-23T20:12:06.097Z,7.89
2018-12-23T20:14:42.818Z,7.85
2018-12-23T20:18:03.590Z,7.48
2018-12-23T20:20:56.385Z,7.80
2018-12-23T20:23:39.884Z,7.79
2018-12-23T20:28:19.427Z,7.79
2018-12-23T20:32:16.340Z,7.82
2018-12-23T20:35:40.619Z,7.82
2018-12-23T20:38:23.036Z,7.83
2018-12-23T20:42:05.692Z,7.84
2018-12-23T20:44:47.501Z,7.85
2018-12-23T20:47:37.912Z,7.85
2018-12-23T20:52:15.259Z,7.87
2018-12-23T20:56:58.315Z,7.88
2018-12-23T20:59:37.712Z,7.63
2018-12-23T21:04:22.302Z,7.88
2018-12-23T21:08:06.627Z,7.86
2018-12-23T21:10:49.235Z,7.82
2018-12-23T21:13:37.499Z,7.80
2018-12-23T21:17:33.305Z,7.82
2018-12-23T21:20:14.781Z,7.69
2018-12-23T21:24:58.496Z,7.64
2018-12-23T21:29:48.687Z,7.55
2018-12-23T21:33:41.351Z,7.38
2018-12-23T21:38:35.710Z,7.20
2018-12-23T21:42:22.595Z,7.06
2018-12-23T21:49:10.186Z,6.98
2018-12-23T21:51:54.893Z,6.81
2018-12-23T21:54:40.119Z,6.71
2018-12-23T21:57:19.293Z,6.64
2018-12-23T21:59:57.294Z,6.61
2018-12-23T22:02:44.616Z,5.85
2018-12-23T22:05:24.765Z,6.52
2018-12-23T22:08:03.959Z,6.55
2018-12-23T22:10:52.308Z,6.56
2018-12-23T22:13:27.731Z,6.58
2018-12-23T22:15:56.754Z,6.57
2018-12-23T22:18:26.157Z,6.47
2018-12-23T22:21:02.887Z,6.37
2018-12-23T22:23:32.075Z,6.27
2018-12-23T22:26:04.281Z,6.25
2018-12-23T22:28:33.157Z,6.23
2018-12-23T22:31:01.114Z,6.20
2018-12-23T22:33:29.547Z,6.14
2018-12-23T22:35:59.044Z,6.08
2018-12-23T22:38:30.017Z,6.06
2018-12-23T22:41:05.432Z,6.02
2018-12-23T22:43:33.928Z,5.99
2018-12-23T22:46:04.209Z,5.96
2018-12-23T22:48:34.899Z,5.91
2018-12-23T22:51:04.492Z,5.91
2018-12-23T22:53:33.007Z,5.88
2018-12-23T22:56:03.343Z,5.87
2018-12-23T22:58:31.558Z,5.84
2018-12-23T23:01:01.111Z,5.83
2018-12-23T23:03:31.150Z,5.82
2018-12-23T23:06:02.101Z,5.82
2018-12-23T23:08:31.569Z,5.82
2018-12-23T23:10:59.485Z,5.65
2018-12-23T23:13:28.341Z,5.79
2018-12-23T23:15:56.327Z,5.78
2018-12-23T23:18:25.550Z,5.76
2018-12-23T23:20:57.631Z,5.71
2018-12-23T23:23:25.434Z,5.67
2018-12-23T23:25:53.244Z,5.64
2018-12-23T23:28:21.217Z,5.59
2018-12-23T23:30:49.211Z,5.54
2018-12-23T23:33:17.987Z,5.51
2018-12-23T23:35:52.814Z,5.47
2018-12-23T23:38:21.404Z,5.13
2018-12-23T23:40:49.434Z,5.35
2018-12-23T23:43:17.991Z,5.01
2018-12-23T23:45:46.021Z,5.28
2018-12-23T23:48:14.495Z,5.27
2018-12-23T23:50:42.511Z,4.96
2018-12-23T23:53:11.114Z,4.76
2018-12-23T23:55:39.361Z,5.10
2018-12-23T23:58:07.586Z,5.08
